createdAt,value
2016-07-18T00:00:13.148Z,79.02
2016-07-18T00:01:13.173Z,79.4
2016-07-18T00:02:13.204Z,78.25
2016-07-18T00:03:13.225Z,78.83
2016-07-18T00:04:13.257Z,78.92
2016-07-18T00:05:13.285Z,78.15
2016-07-18T00:06:13.308Z,77.76
2016-07-18T00:07:13.340Z,77.76
2016-07-18T00:08:13.366Z,78.06
2016-07-18T00:09:13.395Z,78.06
2016-07-18T00:10:13.418Z,77.86
2016-07-18T00:11:13.444Z,78.06
2016-07-18T00:12:13.475Z,77.58
2016-07-18T00:13:13.502Z,78.06
2016-07-18T00:14:13.531Z,77.76
2016-07-18T00:15:13.557Z,77.58
2016-07-18T00:16:13.586Z,77.86
2016-07-18T00:17:13.608Z,78.53
2016-07-18T00:18:13.636Z,77.86
2016-07-18T00:19:13.660Z,77.86
2016-07-18T00:20:13.694Z,77.76
2016-07-18T00:21:28.642Z,78.06
2016-07-18T00:22:13.750Z,77.29
2016-07-18T00:23:13.774Z,77.76
2016-07-18T00:24:13.797Z,77.58
2016-07-18T00:25:13.877Z,77.58
2016-07-18T00:26:13.854Z,77.48
2016-07-18T00:27:13.884Z,76.9
2016-07-18T00:28:13.910Z,77.76
2016-07-18T00:29:13.938Z,76.81
2016-07-18T00:30:13.961Z,77
2016-07-18T00:31:13.989Z,76.9
2016-07-18T00:32:14.021Z,76.71
2016-07-18T00:33:14.049Z,76.9
2016-07-18T00:34:14.076Z,76.81
2016-07-18T00:35:14.101Z,76.71
2016-07-18T00:36:14.126Z,76.65
2016-07-18T00:37:29.078Z,76.17
2016-07-18T00:38:14.181Z,76.26
2016-07-18T00:39:14.207Z,76.07
2016-07-18T00:40:14.236Z,77.13
2016-07-18T00:41:14.260Z,76.14
2016-07-18T00:42:14.295Z,75.98
2016-07-18T00:43:14.315Z,75.07
2016-07-18T00:44:14.345Z,75.69
2016-07-18T00:45:14.367Z,75.27
2016-07-18T00:46:14.394Z,75.02
2016-07-18T00:47:14.423Z,74.73
2016-07-18T00:48:14.453Z,74.63
2016-07-18T00:49:14.477Z,73.47
2016-07-18T00:51:14.533Z,73.15
2016-07-18T00:53:29.511Z,73.15
2016-07-18T00:54:14.618Z,73.35
2016-07-18T00:55:14.645Z,73.25
2016-07-18T00:56:14.668Z,73.38
2016-07-18T00:57:14.709Z,72.48
2016-07-18T00:58:14.724Z,71.46
2016-07-18T00:59:14.754Z,71.55
2016-07-18T01:00:14.777Z,71.33
2016-07-18T01:01:14.802Z,71.52
2016-07-18T01:02:14.828Z,71.61
2016-07-18T01:03:14.861Z,72.09
2016-07-18T01:04:14.885Z,71.42
2016-07-18T01:05:14.908Z,71.84
2016-07-18T01:06:14.940Z,71.65
2016-07-18T01:09:29.947Z,71.42
2016-07-18T01:10:15.050Z,71.26
2016-07-18T01:13:15.126Z,70.3
2016-07-18T01:14:15.159Z,70.68
2016-07-18T01:15:15.185Z,70.4
2016-07-18T01:16:15.209Z,71.08
2016-07-18T01:17:15.237Z,70.78
2016-07-18T01:18:15.265Z,70.98
2016-07-18T01:19:15.290Z,70.3
2016-07-18T01:20:15.314Z,70.98
2016-07-18T01:21:15.347Z,70.78
2016-07-18T01:22:15.372Z,70.4
2016-07-18T01:23:15.397Z,70.88
2016-07-18T01:24:30.352Z,70.59
2016-07-18T01:25:15.457Z,70.3
2016-07-18T01:26:15.481Z,70.11
2016-07-18T01:28:15.536Z,70.27
2016-07-18T01:29:15.573Z,69.79
2016-07-18T01:30:15.597Z,71.04
2016-07-18T01:31:15.619Z,71.17
2016-07-18T01:32:15.640Z,70.94
2016-07-18T01:33:15.674Z,70.27
2016-07-18T01:34:15.701Z,71.04
2016-07-18T01:35:15.726Z,70.3
2016-07-18T01:36:15.756Z,70.88
2016-07-18T01:37:15.779Z,70.56
2016-07-18T01:38:15.810Z,70.21
2016-07-18T01:39:15.834Z,70.75
2016-07-18T01:41:15.889Z,69.79
2016-07-18T01:42:15.913Z,70.27
2016-07-18T01:43:15.939Z,69.79
2016-07-18T01:44:15.971Z,69.79
2016-07-18T01:45:15.995Z,69.4
2016-07-18T01:46:16.026Z,70.01
2016-07-18T01:47:16.050Z,69.82
2016-07-18T01:48:16.079Z,69.12
2016-07-18T01:49:16.106Z,69.6
2016-07-18T01:50:16.134Z,70.11
2016-07-18T01:51:16.163Z,69.89
2016-07-18T01:52:16.186Z,69.92
2016-07-18T01:55:16.269Z,69.73
2016-07-18T01:56:31.217Z,69.92
2016-07-18T01:57:16.325Z,69.24
2016-07-18T01:58:16.351Z,69.69
2016-07-18T01:59:16.373Z,69.6
2016-07-18T02:00:16.400Z,69.21
2016-07-18T02:01:16.431Z,68.44
2016-07-18T02:02:16.458Z,69.31
2016-07-18T02:03:16.486Z,69.79
2016-07-18T02:04:16.520Z,69.31
2016-07-18T02:05:16.537Z,69.31
2016-07-18T02:06:16.561Z,69.69
2016-07-18T02:07:16.594Z,69.21
2016-07-18T02:08:16.621Z,68.83
2016-07-18T02:09:16.646Z,68.63
2016-07-18T02:10:16.669Z,69.89
2016-07-18T02:11:16.700Z,69.6
2016-07-18T02:12:31.653Z,69.89
2016-07-18T02:13:16.754Z,69.12
2016-07-18T02:14:16.782Z,69.6
2016-07-18T02:15:16.806Z,68.73
2016-07-18T02:16:16.834Z,69.4
2016-07-18T02:17:16.863Z,69.21
2016-07-18T02:18:16.886Z,68.63
2016-07-18T02:19:16.912Z,69.53
2016-07-18T02:20:16.947Z,68.73
2016-07-18T02:21:16.965Z,69.4
2016-07-18T02:22:16.999Z,68.63
2016-07-18T02:23:17.025Z,69.21
2016-07-18T02:24:17.048Z,69.5
2016-07-18T02:25:17.075Z,69.34
2016-07-18T02:26:17.108Z,69.21
2016-07-18T02:27:17.134Z,69.31
2016-07-18T02:28:32.085Z,68.73
2016-07-18T02:29:17.185Z,69.5
2016-07-18T02:30:17.216Z,69.21
2016-07-18T02:31:17.243Z,69.21
2016-07-18T02:32:17.266Z,68.73
2016-07-18T02:33:17.301Z,67.77
2016-07-18T02:34:17.319Z,68.25
2016-07-18T02:35:17.346Z,68.35
2016-07-18T02:36:17.372Z,69.02
2016-07-18T02:37:17.403Z,68.35
2016-07-18T02:38:17.428Z,68.35
2016-07-18T02:39:17.459Z,68.73
2016-07-18T02:40:17.480Z,68.35
2016-07-18T02:41:17.511Z,68.15
2016-07-18T02:42:17.539Z,68.06
2016-07-18T02:43:17.561Z,68.44
2016-07-18T02:44:32.514Z,68.25
2016-07-18T02:45:18.323Z,67.68
2016-07-18T02:46:17.646Z,68.06
2016-07-18T02:47:17.673Z,67.58
2016-07-18T02:48:17.696Z,67.68
2016-07-18T02:49:17.729Z,67
2016-07-18T02:50:17.751Z,67.74
2016-07-18T02:51:17.789Z,66.81
2016-07-18T02:52:17.805Z,67.58
2016-07-18T02:53:17.829Z,67.1
2016-07-18T02:54:17.859Z,67.38
2016-07-18T02:55:17.887Z,66.81
2016-07-18T02:56:17.922Z,66.04
2016-07-18T02:58:17.981Z,65.66
2016-07-18T02:59:32.933Z,66.23
2016-07-18T03:00:18.026Z,65.94
2016-07-18T03:01:18.053Z,65.94
2016-07-18T03:02:18.076Z,66.52
2016-07-18T03:03:18.103Z,65.94
2016-07-18T03:04:18.130Z,66.42
2016-07-18T03:05:18.158Z,66.91
2016-07-18T03:06:18.186Z,67.38
2016-07-18T03:07:18.211Z,66.23
2016-07-18T03:08:18.241Z,65.84
2016-07-18T03:09:18.264Z,66.14
2016-07-18T03:10:18.289Z,65.33
2016-07-18T03:11:18.320Z,65.72
2016-07-18T03:12:18.342Z,65.23
2016-07-18T03:13:18.374Z,64.37
2016-07-18T03:14:18.404Z,64.37
2016-07-18T03:15:18.430Z,65.05
2016-07-18T03:17:18.479Z,65.14
2016-07-18T03:18:18.505Z,64.95
2016-07-18T03:19:18.532Z,64.95
2016-07-18T03:20:18.563Z,64.85
2016-07-18T03:21:18.591Z,65.05
2016-07-18T03:22:18.614Z,64.95
2016-07-18T03:23:18.642Z,65.81
2016-07-18T03:24:18.664Z,65.72
2016-07-18T03:25:18.697Z,65.91
2016-07-18T03:26:18.723Z,65.62
2016-07-18T03:27:18.749Z,66
2016-07-18T03:28:18.773Z,66.2
2016-07-18T03:29:18.802Z,66
2016-07-18T03:30:18.823Z,66.68
2016-07-18T03:31:33.778Z,66.77
2016-07-18T03:32:18.879Z,66.58
2016-07-18T03:33:18.907Z,66.16
2016-07-18T03:34:18.935Z,66.07
2016-07-18T03:35:18.963Z,67.03
2016-07-18T03:36:18.990Z,67.45
2016-07-18T03:37:19.011Z,66.39
2016-07-18T03:38:19.040Z,66.26
2016-07-18T03:39:19.065Z,65.69
2016-07-18T03:40:19.096Z,65.78
2016-07-18T03:41:19.124Z,65.69
2016-07-18T03:42:19.850Z,65.78
2016-07-18T03:44:19.201Z,66.16
2016-07-18T03:45:19.233Z,65.97
2016-07-18T03:46:19.256Z,65.97
2016-07-18T03:47:34.207Z,66.36
2016-07-18T03:48:19.313Z,66.46
2016-07-18T03:49:19.334Z,66.36
2016-07-18T03:50:19.364Z,66.84
2016-07-18T03:51:19.389Z,66.87
2016-07-18T03:52:19.419Z,66.64
2016-07-18T03:53:19.449Z,66.55
2016-07-18T03:54:19.471Z,66.58
2016-07-18T03:55:19.498Z,66.64
2016-07-18T03:56:19.525Z,66.74
2016-07-18T03:58:19.574Z,66.36
2016-07-18T03:59:20.304Z,66.1
2016-07-18T04:00:19.644Z,65.91
2016-07-18T04:01:19.666Z,65.53
2016-07-18T04:02:19.689Z,66.3
2016-07-18T04:03:34.637Z,66.3
2016-07-18T04:04:19.737Z,66.2
2016-07-18T04:05:19.769Z,65.53
2016-07-18T04:06:19.791Z,65.72
2016-07-18T04:07:19.822Z,65.53
2016-07-18T04:08:19.845Z,66.1
2016-07-18T04:09:19.876Z,65.14
2016-07-18T04:10:19.904Z,66.3
2016-07-18T04:11:19.931Z,65.72
2016-07-18T04:12:19.950Z,65.14
2016-07-18T04:13:20.690Z,65.23
2016-07-18T04:14:20.004Z,65.43
2016-07-18T04:15:20.039Z,64.98
2016-07-18T04:16:20.058Z,65.33
2016-07-18T04:17:20.089Z,65.43
2016-07-18T04:18:20.119Z,65.72
2016-07-18T04:19:35.068Z,65.37
2016-07-18T04:20:20.169Z,65.17
2016-07-18T04:21:20.202Z,64.6
2016-07-18T04:22:20.227Z,64.02
2016-07-18T04:23:20.253Z,64.31
2016-07-18T04:24:20.275Z,63.73
2016-07-18T04:25:21.009Z,63.73
2016-07-18T04:26:20.331Z,63.35
2016-07-18T04:27:20.359Z,64.22
2016-07-18T04:28:20.381Z,63.92
2016-07-18T04:29:20.411Z,64.02
2016-07-18T04:30:20.443Z,64.12
2016-07-18T04:31:20.467Z,64.22
2016-07-18T04:32:20.492Z,64.31
2016-07-18T04:33:20.520Z,64.79
2016-07-18T04:34:35.477Z,64.6
2016-07-18T04:35:20.576Z,64.4
2016-07-18T04:36:20.604Z,64.6
2016-07-18T04:37:20.632Z,64.31
2016-07-18T04:38:20.659Z,65.08
2016-07-18T04:39:20.687Z,65.08
2016-07-18T04:40:21.411Z,64.31
2016-07-18T04:41:20.739Z,64.22
2016-07-18T04:42:20.763Z,65.08
2016-07-18T04:43:20.791Z,65.14
2016-07-18T04:44:20.816Z,65.23
2016-07-18T04:45:20.848Z,65.08
2016-07-18T04:46:20.871Z,65.62
2016-07-18T04:47:20.895Z,64.95
2016-07-18T04:48:20.930Z,65.05
2016-07-18T04:51:21.008Z,66.2
2016-07-18T04:52:21.043Z,65.72
2016-07-18T04:53:21.062Z,65.91
2016-07-18T04:54:21.090Z,66.39
2016-07-18T04:55:21.113Z,66.3
2016-07-18T04:56:21.140Z,66.77
2016-07-18T04:57:21.168Z,66.93
2016-07-18T04:58:21.196Z,67.54
2016-07-18T04:59:21.225Z,67.45
2016-07-18T05:00:21.248Z,67.25
2016-07-18T05:01:21.274Z,67.45
2016-07-18T05:02:21.302Z,67.54
2016-07-18T05:05:21.382Z,68.37
2016-07-18T05:06:36.335Z,68.12
2016-07-18T05:07:21.439Z,68.12
2016-07-18T05:09:21.490Z,68.31
2016-07-18T05:11:21.544Z,68.02
2016-07-18T05:12:21.573Z,68.31
2016-07-18T05:13:21.600Z,68.21
2016-07-18T05:14:21.623Z,68.51
2016-07-18T05:15:21.653Z,68.31
2016-07-18T05:16:21.680Z,68.79
2016-07-18T05:17:21.706Z,68.85
2016-07-18T05:18:21.735Z,69.53
2016-07-18T05:19:21.755Z,69.14
2016-07-18T05:20:21.789Z,69.43
2016-07-18T05:21:21.811Z,69.72
2016-07-18T05:22:36.761Z,69.72
2016-07-18T05:23:21.863Z,69.75
2016-07-18T05:24:21.892Z,69.75
2016-07-18T05:25:21.916Z,69.95
2016-07-18T05:26:21.946Z,69.56
2016-07-18T05:27:21.984Z,69.46
2016-07-18T05:28:21.998Z,69.37
2016-07-18T05:29:22.026Z,69.75
2016-07-18T05:30:22.050Z,69.75
2016-07-18T05:31:22.787Z,69.75
2016-07-18T05:32:22.101Z,69.66
2016-07-18T05:33:22.133Z,69.46
2016-07-18T05:35:22.186Z,69.46
2016-07-18T05:36:22.211Z,69.56
2016-07-18T05:37:22.239Z,69.95
2016-07-18T05:38:37.187Z,70.04
2016-07-18T05:40:22.320Z,70.01
2016-07-18T05:41:22.347Z,70.97
2016-07-18T05:42:22.373Z,70.49
2016-07-18T05:43:22.399Z,70.78
2016-07-18T05:44:22.425Z,70.39
2016-07-18T05:45:22.456Z,70.97
2016-07-18T05:46:22.481Z,70.78
2016-07-18T05:47:22.510Z,70.78
2016-07-18T05:48:22.530Z,71.55
2016-07-18T05:49:22.558Z,71.55
2016-07-18T05:51:22.610Z,72.41
2016-07-18T05:52:22.639Z,72.31
2016-07-18T05:54:37.617Z,72.02
2016-07-18T05:55:22.720Z,72.41
2016-07-18T05:56:22.746Z,72.41
2016-07-18T05:57:22.767Z,71.93
2016-07-18T05:58:22.799Z,72.41
2016-07-18T05:59:22.823Z,71.55
2016-07-18T06:00:22.852Z,72.12
2016-07-18T06:01:22.881Z,71.93
2016-07-18T06:02:22.909Z,72.34
2016-07-18T06:03:22.932Z,72.12
2016-07-18T06:04:22.957Z,72.89
2016-07-18T06:05:22.981Z,72.5
2016-07-18T06:06:23.018Z,72.5
2016-07-18T06:07:23.042Z,71.83
2016-07-18T06:08:23.068Z,72.02
2016-07-18T06:09:38.017Z,72.06
2016-07-18T06:10:23.120Z,72.25
2016-07-18T06:12:23.173Z,72.25
2016-07-18T06:13:23.201Z,71.87
2016-07-18T06:14:23.223Z,71.39
2016-07-18T06:15:23.251Z,71.19
2016-07-18T06:16:23.280Z,71.48
2016-07-18T06:17:23.312Z,71.52
2016-07-18T06:18:23.329Z,70.46
2016-07-18T06:19:23.358Z,71.14
2016-07-18T06:20:23.387Z,70.56
2016-07-18T06:21:23.411Z,70.27
2016-07-18T06:22:23.440Z,70.17
2016-07-18T06:23:23.469Z,69.98
2016-07-18T06:24:23.492Z,69.89
2016-07-18T06:26:23.551Z,70.94
2016-07-18T06:27:23.577Z,70.27
2016-07-18T06:28:23.603Z,70.27
2016-07-18T06:29:23.627Z,69.98
2016-07-18T06:30:23.650Z,70.37
2016-07-18T06:31:23.679Z,70.84
2016-07-18T06:32:23.707Z,70.62
2016-07-18T06:33:23.736Z,70.75
2016-07-18T06:34:23.758Z,70.37
2016-07-18T06:35:23.785Z,70.27
2016-07-18T06:36:23.814Z,70.84
2016-07-18T06:37:23.845Z,70.94
2016-07-18T06:38:23.866Z,70.65
2016-07-18T06:39:23.891Z,70.27
2016-07-18T06:40:23.920Z,69.79
2016-07-18T06:41:38.872Z,70.27
2016-07-18T06:43:24.005Z,69.98
2016-07-18T06:44:24.030Z,69.98
2016-07-18T06:45:24.057Z,70.52
2016-07-18T06:46:24.093Z,70.33
2016-07-18T06:47:24.110Z,70.14
2016-07-18T06:48:24.140Z,70.72
2016-07-18T06:49:24.164Z,70.72
2016-07-18T06:50:24.189Z,69.79
2016-07-18T06:51:24.213Z,70.23
2016-07-18T06:52:24.241Z,70.62
2016-07-18T06:53:24.270Z,70.72
2016-07-18T06:54:24.301Z,70.62
2016-07-18T06:55:24.323Z,70.72
2016-07-18T06:56:24.351Z,70.62
2016-07-18T06:57:39.305Z,70.33
2016-07-18T06:58:24.416Z,70.33
2016-07-18T06:59:24.428Z,71
2016-07-18T07:00:24.456Z,69.85
2016-07-18T07:01:24.488Z,70.33
2016-07-18T07:02:24.514Z,70.23
2016-07-18T07:03:24.539Z,69.89
2016-07-18T07:04:24.570Z,69.89
2016-07-18T07:05:24.593Z,68.83
2016-07-18T07:06:24.622Z,68.54
2016-07-18T07:07:24.645Z,67.9
2016-07-18T07:08:24.677Z,67.61
2016-07-18T07:09:24.701Z,67.71
2016-07-18T07:10:24.731Z,67.22
2016-07-18T07:11:24.753Z,66.94
2016-07-18T07:12:24.782Z,66.36
2016-07-18T07:13:39.734Z,66.65
2016-07-18T07:14:24.842Z,66.3
2016-07-18T07:15:24.864Z,65.63
2016-07-18T07:16:24.892Z,64.66
2016-07-18T07:17:24.914Z,64.47
2016-07-18T07:18:24.940Z,64.12
2016-07-18T07:19:24.970Z,63.44
2016-07-18T07:20:24.996Z,63.09
2016-07-18T07:21:25.028Z,62.45
2016-07-18T07:22:25.051Z,62.25
2016-07-18T07:23:25.096Z,62.25
2016-07-18T07:24:25.111Z,62.15
2016-07-18T07:25:25.135Z,62.03
2016-07-18T07:26:25.161Z,62.35
2016-07-18T07:27:25.192Z,62.15
2016-07-18T07:28:25.224Z,61.77
2016-07-18T07:29:40.169Z,61.74
2016-07-18T07:30:25.276Z,61.35
2016-07-18T07:31:25.304Z,61.48
2016-07-18T07:32:25.329Z,60.3
2016-07-18T07:33:25.357Z,60.13
2016-07-18T07:34:25.379Z,60.68
2016-07-18T07:35:25.411Z,60.23
2016-07-18T07:36:25.434Z,60.13
2016-07-18T07:37:25.463Z,59.84
2016-07-18T07:38:25.490Z,59.91
2016-07-18T07:39:25.520Z,59.84
2016-07-18T07:40:25.551Z,59.84
2016-07-18T07:41:25.575Z,58.97
2016-07-18T07:43:25.630Z,58.69
2016-07-18T07:44:40.586Z,59.07
2016-07-18T07:45:25.689Z,59.55
2016-07-18T07:46:25.717Z,58.49
2016-07-18T07:47:25.746Z,58.88
2016-07-18T07:48:25.774Z,58.81
2016-07-18T07:49:25.804Z,59.1
2016-07-18T07:50:25.829Z,58.81
2016-07-18T07:51:25.865Z,58.52
2016-07-18T07:52:25.893Z,57.78
2016-07-18T07:53:25.909Z,57.29
2016-07-18T07:54:25.937Z,56.81
2016-07-18T07:55:25.969Z,56.62
2016-07-18T07:56:25.997Z,56.79
2016-07-18T07:57:26.023Z,57.17
2016-07-18T07:59:26.084Z,56.3
2016-07-18T08:00:26.105Z,56.4
2016-07-18T08:02:26.164Z,56.59
2016-07-18T08:03:26.193Z,56.4
2016-07-18T08:04:26.220Z,56.66
2016-07-18T08:05:26.249Z,56.57
2016-07-18T08:06:26.278Z,56.18
2016-07-18T08:07:26.310Z,56.47
2016-07-18T08:08:26.335Z,57.43
2016-07-18T08:09:26.361Z,56.57
2016-07-18T08:10:26.390Z,56.69
2016-07-18T08:11:26.416Z,56.4
2016-07-18T08:12:26.452Z,56.01
2016-07-18T08:13:26.470Z,56.49
2016-07-18T08:14:26.519Z,56.01
2016-07-18T08:15:26.532Z,56.88
2016-07-18T08:16:41.485Z,57.82
2016-07-18T08:17:26.589Z,57.82
2016-07-18T08:18:26.620Z,57.82
2016-07-18T08:19:26.643Z,58.3
2016-07-18T08:20:26.672Z,58.01
2016-07-18T08:21:26.699Z,58.4
2016-07-18T08:22:26.729Z,58.3
2016-07-18T08:23:26.751Z,57.92
2016-07-18T08:24:26.781Z,58.78
2016-07-18T08:25:26.812Z,58.49
2016-07-18T08:26:26.843Z,58.69
2016-07-18T08:27:26.865Z,59.62
2016-07-18T08:30:26.965Z,59.14
2016-07-18T08:31:26.976Z,59.91
2016-07-18T08:32:41.931Z,59.36
2016-07-18T08:33:27.038Z,60
2016-07-18T08:34:27.064Z,60.3
2016-07-18T08:35:27.092Z,60.49
2016-07-18T08:36:27.117Z,60.39
2016-07-18T08:37:27.147Z,60.3
2016-07-18T08:38:27.176Z,60.77
2016-07-18T08:39:27.204Z,61.32
2016-07-18T08:40:27.234Z,60.84
2016-07-18T08:41:27.254Z,60.65
2016-07-18T08:42:27.284Z,60.39
2016-07-18T08:43:27.315Z,59.84
2016-07-18T08:44:27.343Z,59.55
2016-07-18T08:45:27.368Z,58.81
2016-07-18T08:46:27.395Z,58.91
2016-07-18T08:47:27.427Z,58.42
2016-07-18T08:48:42.376Z,58.42
2016-07-18T08:49:27.483Z,59.3
2016-07-18T08:50:27.507Z,58.62
2016-07-18T08:51:27.538Z,58.81
2016-07-18T08:52:27.569Z,60.03
2016-07-18T08:53:27.594Z,60.13
2016-07-18T08:54:27.620Z,60.8
2016-07-18T08:55:27.649Z,60.42
2016-07-18T08:56:27.681Z,60.77
2016-07-18T08:57:27.712Z,62.22
2016-07-18T08:58:27.731Z,62.19
2016-07-18T08:59:28.458Z,62.77
2016-07-18T09:00:27.786Z,62.57
2016-07-18T09:01:27.815Z,62.67
2016-07-18T09:03:27.877Z,62.96
2016-07-18T09:04:42.826Z,64.02
2016-07-18T09:05:27.928Z,64.37
2016-07-18T09:06:27.956Z,65.69
2016-07-18T09:07:27.983Z,66.07
2016-07-18T09:08:28.013Z,66.07
2016-07-18T09:09:28.036Z,65.81
2016-07-18T09:10:28.070Z,66.3
2016-07-18T09:11:28.092Z,65.91
2016-07-18T09:12:28.120Z,66.01
2016-07-18T09:13:28.153Z,66.01
2016-07-18T09:14:28.176Z,66.01
2016-07-18T09:15:28.269Z,66.2
2016-07-18T09:16:28.234Z,66.2
2016-07-18T09:17:28.257Z,67.35
2016-07-18T09:18:28.287Z,67.45
2016-07-18T09:19:43.239Z,67.45
2016-07-18T09:20:28.344Z,66.58
2016-07-18T09:21:28.370Z,66.2
2016-07-18T09:22:28.400Z,66.3
2016-07-18T09:23:28.426Z,66.3
2016-07-18T09:24:28.464Z,66.3
2016-07-18T09:25:28.482Z,65.91
2016-07-18T09:26:28.511Z,65.08
2016-07-18T09:27:28.538Z,64.31
2016-07-18T09:28:28.564Z,65.46
2016-07-18T09:29:28.594Z,64.79
2016-07-18T09:30:28.618Z,65.17
2016-07-18T09:31:28.645Z,66.01
2016-07-18T09:32:28.676Z,65.17
2016-07-18T09:33:28.703Z,65.17
2016-07-18T09:34:28.729Z,65.08
2016-07-18T09:37:28.808Z,64.59
2016-07-18T09:38:28.841Z,63.54
2016-07-18T09:39:28.867Z,63.64
2016-07-18T09:40:28.897Z,64.5
2016-07-18T09:41:28.929Z,64.02
2016-07-18T09:42:28.948Z,63.73
2016-07-18T09:43:28.976Z,64.31
2016-07-18T09:44:29.008Z,64.02
2016-07-18T09:45:29.033Z,64.59
2016-07-18T09:46:29.062Z,64.37
2016-07-18T09:47:29.086Z,65.14
2016-07-18T09:49:29.146Z,64.56
2016-07-18T09:50:29.165Z,65.14
2016-07-18T09:51:44.123Z,65.33
2016-07-18T09:52:29.225Z,65.05
2016-07-18T09:53:29.256Z,65.33
2016-07-18T09:54:29.276Z,65.14
2016-07-18T09:55:29.307Z,65.14
2016-07-18T09:56:29.339Z,64.47
2016-07-18T09:57:29.364Z,65.05
2016-07-18T09:58:29.387Z,64.37
2016-07-18T09:59:29.418Z,64.4
2016-07-18T10:00:29.444Z,64.05
2016-07-18T10:01:29.477Z,63.67
2016-07-18T10:02:29.497Z,62.9
2016-07-18T10:03:29.530Z,63.18
2016-07-18T10:04:29.556Z,63.18
2016-07-18T10:05:29.583Z,63.18
2016-07-18T10:06:29.609Z,63.09
2016-07-18T10:07:44.565Z,62.9
2016-07-18T10:09:29.693Z,63.38
2016-07-18T10:10:29.727Z,64.31
2016-07-18T10:11:29.754Z,64.66
2016-07-18T10:12:29.777Z,64.86
2016-07-18T10:13:29.808Z,65.33
2016-07-18T10:14:29.830Z,64.86
2016-07-18T10:15:30.555Z,65.72
2016-07-18T10:16:29.888Z,65.88
2016-07-18T10:17:29.926Z,66.27
2016-07-18T10:18:29.941Z,65.88
2016-07-18T10:19:29.970Z,66.1
2016-07-18T10:20:29.997Z,65.63
2016-07-18T10:21:30.036Z,66.01
2016-07-18T10:22:30.052Z,64.76
2016-07-18T10:23:45.005Z,65.72
2016-07-18T10:24:30.108Z,65.91
2016-07-18T10:25:30.134Z,65.91
2016-07-18T10:26:30.164Z,65.81
2016-07-18T10:27:30.193Z,64.98
2016-07-18T10:28:30.217Z,64.5
2016-07-18T10:29:30.244Z,64.25
2016-07-18T10:30:30.269Z,63.85
2016-07-18T10:31:30.299Z,63.02
2016-07-18T10:32:30.327Z,61.77
2016-07-18T10:33:30.357Z,61.41
2016-07-18T10:34:30.380Z,62.09
2016-07-18T10:35:30.408Z,62.18
2016-07-18T10:36:31.134Z,62.73
2016-07-18T10:38:30.494Z,62.63
2016-07-18T10:39:45.448Z,62.63
2016-07-18T10:41:30.579Z,63.21
2016-07-18T10:42:30.610Z,62.63
2016-07-18T10:43:30.635Z,62.63
2016-07-18T10:44:30.658Z,62.63
2016-07-18T10:45:30.685Z,61.9
2016-07-18T10:46:30.721Z,62.18
2016-07-18T10:47:30.743Z,61.71
2016-07-18T10:48:30.770Z,62.18
2016-07-18T10:49:30.800Z,61.8
2016-07-18T10:50:30.829Z,62.31
2016-07-18T10:51:30.857Z,62.76
2016-07-18T10:52:30.889Z,63.34
2016-07-18T10:53:30.914Z,64.08
2016-07-18T10:54:45.868Z,63.89
2016-07-18T10:55:30.973Z,63.02
2016-07-18T10:57:31.029Z,62.54
2016-07-18T10:58:31.061Z,63.12
2016-07-18T10:59:31.083Z,63.06
2016-07-18T11:00:31.112Z,61.74
2016-07-18T11:01:31.142Z,61.64
2016-07-18T11:02:31.168Z,60.71
2016-07-18T11:04:31.228Z,61.09
2016-07-18T11:05:31.263Z,62.22
2016-07-18T11:07:31.323Z,62.34
2016-07-18T11:08:31.338Z,61.96
2016-07-18T11:09:31.370Z,61.67
2016-07-18T11:10:32.098Z,60.89
2016-07-18T11:11:31.422Z,61.83
2016-07-18T11:12:31.457Z,61.64
2016-07-18T11:13:31.479Z,62.18
2016-07-18T11:14:31.509Z,63.31
2016-07-18T11:15:31.538Z,63.31
2016-07-18T11:16:31.569Z,62.96
2016-07-18T11:17:31.602Z,62.48
2016-07-18T11:18:31.623Z,62.48
2016-07-18T11:19:31.655Z,63.06
2016-07-18T11:20:31.679Z,62.86
2016-07-18T11:21:31.711Z,61.9
2016-07-18T11:22:31.739Z,62.22
2016-07-18T11:23:31.769Z,60.77
2016-07-18T11:24:31.797Z,60.41
2016-07-18T11:25:31.821Z,60.03
2016-07-18T11:26:46.775Z,59.35
2016-07-18T11:27:31.884Z,59
2016-07-18T11:28:31.907Z,59.09
2016-07-18T11:29:31.936Z,60.25
2016-07-18T11:30:31.964Z,59.64
2016-07-18T11:31:31.996Z,59.83
2016-07-18T11:32:32.723Z,59.83
2016-07-18T11:33:32.052Z,58.7
2016-07-18T11:34:32.082Z,58.06
2016-07-18T11:35:32.109Z,57.29
2016-07-18T11:36:32.139Z,56.63
2016-07-18T11:37:32.164Z,56.71
2016-07-18T11:38:32.203Z,56.61
2016-07-18T11:40:32.256Z,53.09
2016-07-18T11:41:32.281Z,53.11
2016-07-18T11:42:47.235Z,52.92
2016-07-18T11:43:32.342Z,52.82
2016-07-18T11:44:32.366Z,53.02
2016-07-18T11:45:32.400Z,53.57
2016-07-18T11:46:32.432Z,53.31
2016-07-18T11:47:32.458Z,53.86
2016-07-18T11:48:32.487Z,54.71
2016-07-18T11:49:33.214Z,54.9
2016-07-18T11:50:32.549Z,55.42
2016-07-18T11:51:32.571Z,55.81
2016-07-18T11:52:32.599Z,55.74
2016-07-18T11:53:32.631Z,55.83
2016-07-18T11:54:32.660Z,55.52
2016-07-18T11:55:32.690Z,55.33
2016-07-18T11:56:32.717Z,54.58
2016-07-18T11:57:32.747Z,54.68
2016-07-18T11:58:47.701Z,54.58
2016-07-18T11:59:32.808Z,55.16
2016-07-18T12:00:32.838Z,54.77
2016-07-18T12:01:32.866Z,54.77
2016-07-18T12:02:32.892Z,55.93
2016-07-18T12:03:32.928Z,54.71
2016-07-18T12:04:32.953Z,55.07
2016-07-18T12:05:32.985Z,54.49
2016-07-18T12:06:33.011Z,54.1
2016-07-18T12:07:33.038Z,54.49
2016-07-18T12:08:33.069Z,54.68
2016-07-18T12:09:33.098Z,55.55
2016-07-18T12:10:33.126Z,56.36
2016-07-18T12:11:33.160Z,56.16
2016-07-18T12:12:33.182Z,56.56
2016-07-18T12:13:33.217Z,57.04
2016-07-18T12:14:48.166Z,57.62
2016-07-18T12:15:33.268Z,57.9
2016-07-18T12:16:33.295Z,57.59
2016-07-18T12:17:33.326Z,57.62
2016-07-18T12:18:33.353Z,57.52
2016-07-18T12:19:33.387Z,57.62
2016-07-18T12:20:33.410Z,57.42
2016-07-18T12:21:33.442Z,57.42
2016-07-18T12:22:33.474Z,58.36
2016-07-18T12:23:33.509Z,58.26
2016-07-18T12:24:33.529Z,58.45
2016-07-18T12:25:33.556Z,58.94
2016-07-18T12:26:33.588Z,59.52
2016-07-18T12:27:33.619Z,59.61
2016-07-18T12:28:33.647Z,60.55
2016-07-18T12:29:48.598Z,60.16
2016-07-18T12:30:33.701Z,60.45
2016-07-18T12:31:33.728Z,60.45
2016-07-18T12:32:33.759Z,60.64
2016-07-18T12:33:33.784Z,60.55
2016-07-18T12:34:33.817Z,60.38
2016-07-18T12:35:33.846Z,60.19
2016-07-18T12:36:33.869Z,59.55
2016-07-18T12:37:33.903Z,58.87
2016-07-18T12:38:33.931Z,58.8
2016-07-18T12:39:33.967Z,57.93
2016-07-18T12:40:33.986Z,57.54
2016-07-18T12:41:34.022Z,56.68
2016-07-18T12:43:34.072Z,56.51
2016-07-18T12:44:34.100Z,56.41
2016-07-18T12:45:34.131Z,56.41
2016-07-18T12:46:34.156Z,56.32
2016-07-18T12:47:34.182Z,56.13
2016-07-18T12:48:34.210Z,56.71
2016-07-18T12:49:34.243Z,55.65
2016-07-18T12:50:34.272Z,56.32
2016-07-18T12:51:34.301Z,56.41
2016-07-18T12:52:34.330Z,56.32
2016-07-18T12:53:34.357Z,56.9
2016-07-18T12:54:34.392Z,56.22
2016-07-18T12:55:34.422Z,56.13
2016-07-18T12:56:34.442Z,56.41
2016-07-18T12:57:34.476Z,54.71
2016-07-18T12:59:34.532Z,54.9
2016-07-18T13:00:34.555Z,54.77
2016-07-18T13:01:49.513Z,55.35
2016-07-18T13:02:34.618Z,54.22
2016-07-18T13:03:34.646Z,54.15
2016-07-18T13:04:34.672Z,54.71
2016-07-18T13:05:34.709Z,55.57
2016-07-18T13:06:35.432Z,55.65
2016-07-18T13:07:34.769Z,55.29
2016-07-18T13:08:34.790Z,55.55
2016-07-18T13:09:34.823Z,54.99
2016-07-18T13:10:34.850Z,54.61
2016-07-18T13:11:34.879Z,54.61
2016-07-18T13:12:34.905Z,54.35
2016-07-18T13:13:34.942Z,54.53
2016-07-18T13:14:34.969Z,54.61
2016-07-18T13:15:34.999Z,54.15
2016-07-18T13:16:35.023Z,53.77
2016-07-18T13:17:49.979Z,54.15
2016-07-18T13:18:35.081Z,54.25
2016-07-18T13:20:35.140Z,53.41
2016-07-18T13:21:35.170Z,53.69
2016-07-18T13:22:35.199Z,53.69
2016-07-18T13:23:35.229Z,52.75
2016-07-18T13:24:35.259Z,51.88
2016-07-18T13:25:35.283Z,52.53
2016-07-18T13:26:35.312Z,52.63
2016-07-18T13:27:35.346Z,52.63
2016-07-18T13:28:35.376Z,52.82
2016-07-18T13:29:35.406Z,52.44
2016-07-18T13:30:35.431Z,53.11
2016-07-18T13:31:35.463Z,52.53
2016-07-18T13:32:35.489Z,52.08
2016-07-18T13:33:50.449Z,50.82
2016-07-18T13:34:35.555Z,51.37
2016-07-18T13:35:35.580Z,51.76
2016-07-18T13:36:35.611Z,52.41
2016-07-18T13:37:35.636Z,52.89
2016-07-18T13:38:35.673Z,52.99
2016-07-18T13:39:35.696Z,51.93
2016-07-18T13:40:35.731Z,52.12
2016-07-18T13:41:35.762Z,52.51